KGVT/GVT METAR and TAF weather

Enter ICAO airport designator
Station Type Date Time Source
KGVT METAR 2021/05/14 04:15 UTC NOAA

KGVT 140415Z AUTO 09003KT 10SM CLR 15/11 A3025 RMK AO2 TSNO T01500108


Station Type Date Time Source
KGVT Decoded METAR 2021/05/14 04:15 UTC NOAA

Greenville / Majors, TX, United States (KGVT) 33-04N 096-04W
May 14, 2021 - 12:15 AM EDT / 2021.05.14 0415 UTC
Wind: from the E (090 degrees) at 3 MPH (3 KT):0
Visibility: 10 mile(s):0
Sky conditions: clear
Temperature: 59.0 F (15.0 C)
Dew Point: 51.4 F (10.8 C)
Relative Humidity: 75%
Pressure (altimeter): 30.25 in. Hg (1024 hPa)
ob: KGVT 140415Z AUTO 09003KT 10SM CLR 15/11 A3025 RMK AO2 TSNO T01500108
cycle: 4

Station Type Date Time Source
KGVT TAF UTC NOAA

Error!

Example: see airport list